KLM4P LIPX-LIPZ
Flight info
| Callsign | KLM4P |
|---|---|
| Flight time | N/A |
| Altitude | 15000 |
| Route | TUVDE Y922 KOPER L614 CHI |
| Aircraft | B738/M-SDE2E3FGHIRWXY/LB1 |
Departure
| Time | 2026-05-08 19:42 |
|---|---|
| Airport | Verona Villafranca Valerio Catullo Airport (LIPX) |
Arrival
| Time | N/A |
|---|---|
| Airport | Venice Marco Polo Airport (LIPZ) |
| Time | Latitude | Longitude | Altitude | Speed | Heading |
|---|---|---|---|---|---|
| 2026-05-08 19:36 | 45.40176 | 10.90408 | 236 ft | 0 kts | 180° |
| 2026-05-08 19:38 | 45.40170 | 10.90407 | 236 ft | 3 kts | 187° |
| 2026-05-08 19:38 | 45.40161 | 10.90383 | 240 ft | 3 kts | 277° |
| 2026-05-08 19:38 | 45.40179 | 10.90376 | 236 ft | 3 kts | 26° |
| 2026-05-08 19:39 | 45.40205 | 10.90399 | 238 ft | 7 kts | 24° |
| 2026-05-08 19:39 | 45.40250 | 10.90389 | 237 ft | 7 kts | 320° |
| 2026-05-08 19:39 | 45.40285 | 10.90341 | 236 ft | 7 kts | 316° |
| 2026-05-08 19:39 | 45.40319 | 10.90295 | 236 ft | 7 kts | 314° |
| 2026-05-08 19:40 | 45.40333 | 10.90234 | 236 ft | 7 kts | 271° |
| 2026-05-08 19:40 | 45.40344 | 10.90171 | 237 ft | 7 kts | 294° |
| 2026-05-08 19:40 | 45.40363 | 10.90112 | 238 ft | 6 kts | 294° |
| 2026-05-08 19:40 | 45.40379 | 10.90053 | 236 ft | 6 kts | 276° |
| 2026-05-08 19:41 | 45.40358 | 10.90000 | 240 ft | 6 kts | 228° |
| 2026-05-08 19:41 | 45.40352 | 10.89990 | 236 ft | 1 kts | 227° |
| 2026-05-08 19:41 | 45.40346 | 10.89982 | 237 ft | 3 kts | 227° |
| 2026-05-08 19:41 | 45.40209 | 10.89782 | 238 ft | 63 kts | 225° |
| 2026-05-08 19:42 | 45.39742 | 10.89102 | 238 ft | 127 kts | 225° |
| 2026-05-08 19:42 | 45.39010 | 10.88031 | 300 ft | 172 kts | 226° |
| 2026-05-08 19:42 | 45.38170 | 10.86811 | 918 ft | 171 kts | 225° |
| 2026-05-08 19:42 | 45.37334 | 10.85568 | 1557 ft | 178 kts | 227° |
| 2026-05-08 19:43 | 45.36798 | 10.83934 | 2041 ft | 199 kts | 262° |
| 2026-05-08 19:43 | 45.36538 | 10.81890 | 2286 ft | 223 kts | 254° |
| 2026-05-08 19:43 | 45.36061 | 10.79715 | 2648 ft | 236 kts | 251° |
| 2026-05-08 19:43 | 45.35252 | 10.77687 | 3130 ft | 241 kts | 221° |
| 2026-05-08 19:44 | 45.33737 | 10.76752 | 3709 ft | 244 kts | 185° |
| 2026-05-08 19:44 | 45.32070 | 10.77116 | 4292 ft | 250 kts | 157° |
| 2026-05-08 19:44 | 45.30624 | 10.78619 | 4702 ft | 267 kts | 128° |
| 2026-05-08 19:44 | 45.29842 | 10.80998 | 5459 ft | 270 kts | 99° |
| 2026-05-08 19:45 | 45.29764 | 10.83626 | 6301 ft | 271 kts | 88° |
| 2026-05-08 19:45 | 45.29830 | 10.86310 | 7062 ft | 274 kts | 88° |
| 2026-05-08 19:45 | 45.29743 | 10.89028 | 7825 ft | 276 kts | 101° |
| 2026-05-08 19:45 | 45.29330 | 10.91647 | 8627 ft | 278 kts | 104° |
| 2026-05-08 19:46 | 45.28880 | 10.94303 | 9356 ft | 282 kts | 104° |
| 2026-05-08 19:46 | 45.28418 | 10.97038 | 10122 ft | 286 kts | 104° |
| 2026-05-08 19:46 | 45.27460 | 11.02855 | 10677 ft | 326 kts | 103° |
| 2026-05-08 19:47 | 45.26937 | 11.06093 | 10916 ft | 345 kts | 103° |
| 2026-05-08 19:47 | 45.26399 | 11.09460 | 11444 ft | 353 kts | 103° |
| 2026-05-08 19:47 | 45.25863 | 11.12837 | 12110 ft | 357 kts | 103° |
| 2026-05-08 19:47 | 45.25318 | 11.16280 | 12780 ft | 361 kts | 103° |
| 2026-05-08 19:48 | 45.24766 | 11.19768 | 13505 ft | 365 kts | 103° |
| 2026-05-08 19:48 | 45.24205 | 11.23312 | 14178 ft | 370 kts | 103° |
| 2026-05-08 19:48 | 45.23637 | 11.26896 | 14807 ft | 375 kts | 103° |
| 2026-05-08 19:48 | 45.23063 | 11.30516 | 15042 ft | 379 kts | 103° |
| 2026-05-08 19:49 | 45.22475 | 11.34207 | 15065 ft | 387 kts | 103° |
| 2026-05-08 19:49 | 45.21884 | 11.37919 | 15064 ft | 385 kts | 103° |
| 2026-05-08 19:49 | 45.21294 | 11.41607 | 15067 ft | 383 kts | 103° |
| 2026-05-08 19:49 | 45.20706 | 11.45283 | 15070 ft | 382 kts | 103° |
| 2026-05-08 19:50 | 45.20115 | 11.48962 | 15069 ft | 382 kts | 103° |
| 2026-05-08 19:50 | 45.19524 | 11.52640 | 15071 ft | 382 kts | 103° |
| 2026-05-08 19:50 | 45.18931 | 11.56317 | 15069 ft | 383 kts | 103° |
| 2026-05-08 19:50 | 45.18336 | 11.59999 | 15070 ft | 383 kts | 103° |
| 2026-05-08 19:51 | 45.17739 | 11.63685 | 15075 ft | 384 kts | 103° |
| 2026-05-08 19:51 | 45.17141 | 11.67371 | 15076 ft | 384 kts | 103° |
| 2026-05-08 19:51 | 45.16541 | 11.71064 | 15076 ft | 385 kts | 103° |
| 2026-05-08 19:51 | 45.15939 | 11.74756 | 15077 ft | 385 kts | 103° |
| 2026-05-08 19:52 | 45.15335 | 11.78454 | 15073 ft | 385 kts | 103° |
| 2026-05-08 19:52 | 45.14732 | 11.82134 | 15072 ft | 386 kts | 103° |
| 2026-05-08 19:52 | 45.14125 | 11.85838 | 15071 ft | 386 kts | 103° |
| 2026-05-08 19:52 | 45.13521 | 11.89509 | 15069 ft | 384 kts | 103° |
| 2026-05-08 19:53 | 45.12933 | 11.93078 | 15045 ft | 370 kts | 103° |
| 2026-05-08 19:53 | 45.12353 | 11.96596 | 14934 ft | 360 kts | 103° |
| 2026-05-08 19:53 | 45.11785 | 12.00028 | 14651 ft | 355 kts | 103° |
| 2026-05-08 19:53 | 45.11223 | 12.03419 | 14253 ft | 352 kts | 103° |
| 2026-05-08 19:54 | 45.11004 | 12.06803 | 13899 ft | 348 kts | 82° |
| 2026-05-08 19:54 | 45.11843 | 12.09955 | 13529 ft | 343 kts | 56° |
| 2026-05-08 19:54 | 45.13387 | 12.12506 | 13131 ft | 340 kts | 45° |
| 2026-05-08 19:54 | 45.15043 | 12.14779 | 12667 ft | 339 kts | 44° |
| 2026-05-08 19:55 | 45.16755 | 12.17077 | 12241 ft | 338 kts | 44° |
| 2026-05-08 19:55 | 45.18447 | 12.19352 | 11867 ft | 335 kts | 44° |
| 2026-05-08 19:55 | 45.20112 | 12.21608 | 11632 ft | 328 kts | 44° |
| 2026-05-08 19:55 | 45.21706 | 12.23784 | 11552 ft | 316 kts | 44° |
| 2026-05-08 19:56 | 45.23258 | 12.25916 | 11467 ft | 305 kts | 45° |
| 2026-05-08 19:56 | 45.24755 | 12.27980 | 11393 ft | 295 kts | 45° |
| 2026-05-08 19:56 | 45.26197 | 12.29974 | 11272 ft | 287 kts | 45° |
| 2026-05-08 19:56 | 45.27616 | 12.31939 | 11001 ft | 285 kts | 45° |
| 2026-05-08 19:57 | 45.29029 | 12.33899 | 10701 ft | 284 kts | 45° |
| 2026-05-08 19:57 | 45.30429 | 12.35843 | 10444 ft | 282 kts | 45° |
| 2026-05-08 19:57 | 45.31830 | 12.37790 | 10168 ft | 281 kts | 45° |
| 2026-05-08 19:57 | 45.33224 | 12.39729 | 9892 ft | 280 kts | 45° |
| 2026-05-08 19:58 | 45.34161 | 12.41032 | 9693 ft | 279 kts | 45° |
| 2026-05-08 19:58 | 45.35525 | 12.42931 | 9396 ft | 277 kts | 45° |
| 2026-05-08 19:58 | 45.36899 | 12.44847 | 9096 ft | 276 kts | 45° |
| 2026-05-08 19:58 | 45.38267 | 12.46755 | 8801 ft | 275 kts | 45° |
| 2026-05-08 19:59 | 45.39631 | 12.48657 | 8518 ft | 274 kts | 45° |
| 2026-05-08 19:59 | 45.40986 | 12.50549 | 8224 ft | 273 kts | 45° |
| 2026-05-08 19:59 | 45.42342 | 12.52444 | 7937 ft | 272 kts | 45° |
| 2026-05-08 19:59 | 45.43692 | 12.54331 | 7645 ft | 271 kts | 45° |
| 2026-05-08 20:00 | 45.45159 | 12.55984 | 7354 ft | 272 kts | 30° |
| 2026-05-08 20:00 | 45.46849 | 12.57180 | 7100 ft | 270 kts | 27° |
| 2026-05-08 20:00 | 45.48523 | 12.58351 | 6822 ft | 269 kts | 27° |
| 2026-05-08 20:00 | 45.50195 | 12.59552 | 6554 ft | 268 kts | 28° |
| 2026-05-08 20:01 | 45.51854 | 12.60763 | 6283 ft | 267 kts | 28° |
| 2026-05-08 20:01 | 45.53492 | 12.61969 | 6111 ft | 262 kts | 28° |
| 2026-05-08 20:01 | 45.55089 | 12.63146 | 5992 ft | 255 kts | 28° |
| 2026-05-08 20:01 | 45.56685 | 12.64126 | 5880 ft | 248 kts | 10° |
| 2026-05-08 20:02 | 45.58351 | 12.63951 | 5702 ft | 239 kts | 338° |
| 2026-05-08 20:02 | 45.59683 | 12.62674 | 5651 ft | 225 kts | 313° |
| 2026-05-08 20:02 | 45.60519 | 12.60883 | 5518 ft | 213 kts | 292° |
| 2026-05-08 20:02 | 45.61048 | 12.58927 | 5240 ft | 209 kts | 289° |
| 2026-05-08 20:03 | 45.61535 | 12.56979 | 4872 ft | 208 kts | 290° |
| 2026-05-08 20:03 | 45.62018 | 12.55056 | 4531 ft | 204 kts | 290° |
| 2026-05-08 20:03 | 45.62492 | 12.53163 | 4173 ft | 202 kts | 288° |
| 2026-05-08 20:03 | 45.62565 | 12.51187 | 3620 ft | 208 kts | 252° |
| 2026-05-08 20:04 | 45.61676 | 12.49512 | 2907 ft | 221 kts | 219° |
| 2026-05-08 20:04 | 45.60489 | 12.48077 | 2408 ft | 222 kts | 223° |
| 2026-05-08 20:04 | 45.59401 | 12.46636 | 2101 ft | 207 kts | 223° |
| 2026-05-08 20:04 | 45.58382 | 12.45308 | 1852 ft | 191 kts | 223° |
| 2026-05-08 20:05 | 45.57430 | 12.44080 | 1595 ft | 178 kts | 223° |
| 2026-05-08 20:05 | 45.56549 | 12.42946 | 1381 ft | 163 kts | 223° |
| 2026-05-08 20:05 | 45.55739 | 12.41905 | 1159 ft | 151 kts | 223° |
| 2026-05-08 20:05 | 45.54968 | 12.40913 | 990 ft | 150 kts | 222° |
| 2026-05-08 20:06 | 45.54194 | 12.39917 | 813 ft | 151 kts | 222° |
| 2026-05-08 20:06 | 45.53423 | 12.38925 | 583 ft | 151 kts | 222° |
| 2026-05-08 20:06 | 45.52662 | 12.37945 | 412 ft | 147 kts | 222° |
| 2026-05-08 20:06 | 45.51898 | 12.36979 | 179 ft | 148 kts | 223° |
| 2026-05-08 20:07 | 45.51149 | 12.36007 | 21 ft | 144 kts | 223° |